Time;durP1;ratioP1;P1;durP2;ratioP2;P2;SDS_P1;SDS_P2;PMS_P1;PMS_P2;Temp;Humidity;BMP_temperature;BMP_pressure;BME280_temperature;BME280_humidity;BME280_pressure;Samples;Min_cycle;Max_cycle;Signal;HPM_P1;HPM_P2
2022/02/25 00:02:54;;;;;;;6.82;3.22;;;;;;;3.73;94.18;101591.84;10430113;28;20061;-75
2022/02/25 00:07:55;;;;;;;21.35;3.97;;;;;;;3.82;95.75;101592.81;10429683;28;20033;-75
2022/02/25 00:12:55;;;;;;;9.95;3.42;;;;;;;3.79;96.01;101587.72;10428839;28;20025;-75
2022/02/25 00:17:56;;;;;;;12.02;3.17;;;;;;;3.65;96.07;101585.44;10428714;28;20037;-76
2022/02/25 00:22:56;;;;;;;8.75;4.10;;;;;;;3.81;96.02;101601.00;10428938;28;20437;-76
2022/02/25 00:27:56;;;;;;;25.63;4.72;;;;;;;3.82;96.10;101605.38;10428732;28;20053;-75
2022/02/25 00:32:57;;;;;;;20.00;3.33;;;;;;;3.80;96.54;101600.16;10427415;28;20496;-75
2022/02/25 00:37:57;;;;;;;8.30;3.63;;;;;;;3.82;96.83;101608.06;10430680;28;20471;-76
2022/02/25 00:42:58;;;;;;;6.72;2.72;;;;;;;3.83;96.44;101610.63;10430759;28;20115;-76
2022/02/25 00:47:58;;;;;;;15.38;7.10;;;;;;;3.93;97.29;101608.81;10430539;28;20068;-76
2022/02/25 00:52:58;;;;;;;15.80;3.67;;;;;;;3.81;97.49;101611.72;10429490;28;20060;-76
2022/02/25 00:57:59;;;;;;;10.23;4.43;;;;;;;3.85;97.37;101619.34;10427606;28;20033;-76
2022/02/25 01:02:59;;;;;;;15.32;3.83;;;;;;;3.78;97.18;101604.81;10421203;28;20048;-76
2022/02/25 01:08:04;;;;;;;12.48;3.58;;;;;;;3.81;97.31;101607.22;10421745;28;20033;-76
2022/02/25 01:13:05;;;;;;;4.13;2.50;;;;;;;3.75;98.33;101604.22;10422703;28;20041;-76
2022/02/25 01:18:05;;;;;;;7.32;3.50;;;;;;;3.72;97.84;101614.22;10421397;28;20095;-76
2022/02/25 01:23:07;;;;;;;9.68;4.50;;;;;;;3.79;97.54;101614.53;10419546;28;20037;-75
2022/02/25 01:28:08;;;;;;;27.33;3.95;;;;;;;3.77;97.88;101613.00;10419813;28;20087;-76
2022/02/25 01:33:10;;;;;;;22.20;3.42;;;;;;;3.83;96.76;101624.00;10418795;28;20087;-75
2022/02/25 01:38:10;;;;;;;3.85;3.38;;;;;;;3.90;97.52;101619.78;10420275;28;20121;-76
2022/02/25 01:43:10;;;;;;;10.32;3.75;;;;;;;3.95;98.57;101619.38;10420566;28;20088;-76
2022/02/25 01:48:11;;;;;;;13.07;3.72;;;;;;;3.98;98.23;101621.78;10418195;28;20096;-76
2022/02/25 01:53:11;;;;;;;8.23;5.00;;;;;;;3.85;96.59;101619.34;10419140;28;20041;-75
2022/02/25 01:58:12;;;;;;;13.73;4.35;;;;;;;3.89;97.28;101619.91;10418236;28;20127;-75
2022/02/25 02:03:12;;;;;;;5.20;3.30;;;;;;;3.89;97.88;101622.59;10418715;28;20037;-76
2022/02/25 02:08:12;;;;;;;17.48;4.25;;;;;;;3.83;98.09;101604.38;10419021;28;20033;-76
2022/02/25 02:13:13;;;;;;;23.80;4.65;;;;;;;3.84;98.19;101611.47;10417373;28;20125;-75
2022/02/25 02:18:13;;;;;;;12.90;4.85;;;;;;;3.81;98.36;101612.56;10400970;28;20037;-75
2022/02/25 02:23:14;;;;;;;8.45;2.85;;;;;;;3.77;98.68;101605.78;10418034;28;20037;-76
2022/02/25 02:28:21;;;;;;;21.65;4.50;;;;;;;3.94;100.00;101613.16;10419696;28;20469;-75
2022/02/25 02:33:22;;;;;;;17.50;4.25;;;;;;;3.89;99.45;101611.88;10417620;28;20030;-76
2022/02/25 02:38:22;;;;;;;15.18;4.13;;;;;;;3.92;99.88;101614.28;10417830;28;20465;-75
2022/02/25 02:43:22;;;;;;;13.35;3.30;;;;;;;3.94;100.00;101596.25;10399887;28;20057;-75
2022/02/25 02:48:23;;;;;;;13.80;4.25;;;;;;;3.96;100.00;101583.56;10399135;28;20076;-76
2022/02/25 02:53:23;;;;;;;13.85;4.75;;;;;;;3.89;98.49;101583.28;10416858;28;20052;-75
2022/02/25 02:58:23;;;;;;;30.00;5.70;;;;;;;3.95;99.07;101581.84;10416597;28;20065;-75
2022/02/25 03:03:24;;;;;;;23.40;4.85;;;;;;;3.90;99.05;101581.44;10416357;28;20441;-75
2022/02/25 03:08:24;;;;;;;22.35;5.05;;;;;;;3.88;99.02;101576.19;10415461;28;20033;-75
2022/02/25 03:13:25;;;;;;;22.00;5.10;;;;;;;3.83;99.15;101567.75;10416622;28;20389;-75
2022/02/25 03:18:25;;;;;;;12.38;5.63;;;;;;;3.89;98.49;101574.38;10415761;28;20436;-75
2022/02/25 03:23:25;;;;;;;10.98;6.82;;;;;;;3.96;98.64;101584.41;10415954;28;20060;-75
2022/02/25 03:28:27;;;;;;;8.32;4.72;;;;;;;3.91;99.79;101593.84;10416020;28;20060;-75
2022/02/25 03:33:27;;;;;;;6.30;2.92;;;;;;;4.13;100.00;101590.09;10416574;28;20113;-75
2022/02/25 03:38:27;;;;;;;13.93;4.35;;;;;;;4.46;100.00;101579.94;10415864;28;20037;-75
2022/02/25 03:43:28;;;;;;;7.00;4.10;;;;;;;4.60;100.00;101587.59;10414615;28;20037;-75
2022/02/25 03:48:28;;;;;;;11.95;4.40;;;;;;;4.56;99.38;101584.34;10415217;28;20076;-75
2022/02/25 03:53:29;;;;;;;4.50;3.45;;;;;;;4.65;99.18;101586.16;10397947;28;20045;-75
2022/02/25 03:58:29;;;;;;;16.35;4.22;;;;;;;4.78;99.19;101579.66;10415843;28;20456;-75
2022/02/25 04:03:30;;;;;;;12.13;5.57;;;;;;;4.83;99.36;101588.97;10415944;28;20037;-75
2022/02/25 04:08:31;;;;;;;21.80;3.83;;;;;;;4.97;99.32;101592.19;10414016;28;20029;-75
2022/02/25 04:13:31;;;;;;;26.00;5.40;;;;;;;5.05;99.00;101597.69;10413894;28;20091;-76
2022/02/25 04:18:31;;;;;;;11.13;4.63;;;;;;;5.12;98.15;101604.19;10415656;28;20060;-75
2022/02/25 04:23:32;;;;;;;13.82;5.57;;;;;;;5.16;96.18;101594.84;10413667;28;20037;-76
2022/02/25 04:28:32;;;;;;;13.65;4.38;;;;;;;5.17;96.63;101596.53;10396325;28;20481;-76
2022/02/25 04:33:33;;;;;;;27.05;4.00;;;;;;;5.16;96.84;101584.09;10414815;28;20045;-76
2022/02/25 04:38:33;;;;;;;20.63;5.53;;;;;;;5.17;97.91;101582.25;10422343;28;20121;-75
2022/02/25 04:43:34;;;;;;;14.10;4.47;;;;;;;4.94;99.33;101595.16;10420981;28;20042;-75
2022/02/25 04:48:34;;;;;;;16.75;5.30;;;;;;;4.62;100.00;101581.06;10422667;28;20085;-75
2022/02/25 04:53:34;;;;;;;13.55;5.68;;;;;;;4.48;100.00;101591.38;10421404;28;20079;-75
2022/02/25 04:58:35;;;;;;;12.73;5.15;;;;;;;4.41;100.00;101593.78;10421762;28;20077;-74
2022/02/25 05:03:37;;;;;;;15.75;5.65;;;;;;;4.31;100.00;101601.81;10420861;28;20449;-74
2022/02/25 05:08:37;;;;;;;22.90;4.68;;;;;;;4.35;100.00;101602.38;10421294;28;20113;-74
2022/02/25 05:13:38;;;;;;;11.80;5.57;;;;;;;4.40;100.00;101598.31;10421334;28;20481;-74
2022/02/25 05:23:57;;;;;;;18.85;6.22;;;;;;;4.52;100.00;101630.34;10420338;28;20034;-74
2022/02/25 05:28:58;;;;;;;24.08;5.15;;;;;;;4.58;100.00;101629.78;10420682;28;20415;-74
2022/02/25 05:33:58;;;;;;;12.55;4.80;;;;;;;4.58;100.00;101632.47;10420455;28;20116;-74
2022/02/25 05:38:59;;;;;;;10.43;2.53;;;;;;;4.63;100.00;101644.47;10421216;28;20080;-75
2022/02/25 05:43:59;;;;;;;22.35;4.85;;;;;;;4.70;100.00;101644.75;10419231;28;20482;-75
2022/02/25 05:48:59;;;;;;;10.15;3.53;;;;;;;4.79;100.00;101662.69;10420088;28;20216;-75
2022/02/25 05:54:01;;;;;;;11.77;4.30;;;;;;;4.79;100.00;101659.19;10419474;28;20060;-75
2022/02/25 05:59:01;;;;;;;21.10;5.10;;;;;;;4.83;100.00;101669.47;10420429;28;20041;-75
2022/02/25 06:04:02;;;;;;;37.17;5.07;;;;;;;4.81;99.91;101697.44;10419481;28;20037;-75
2022/02/25 06:09:02;;;;;;;20.40;4.78;;;;;;;4.88;100.00;101696.75;10418534;28;20112;-75
2022/02/25 06:14:03;;;;;;;21.52;4.32;;;;;;;4.90;100.00;101707.31;10417455;28;20068;-75
2022/02/25 06:19:03;;;;;;;17.75;4.88;;;;;;;5.03;100.00;101721.31;10418376;28;20394;-75
2022/02/25 06:24:04;;;;;;;10.07;3.80;;;;;;;5.08;100.00;101732.47;10417705;28;20041;-75
2022/02/25 06:29:04;;;;;;;12.15;4.80;;;;;;;5.20;100.00;101743.06;10418994;28;20108;-75
2022/02/25 06:34:05;;;;;;;10.43;3.78;;;;;;;5.23;100.00;101750.84;10418541;28;20079;-75
2022/02/25 06:39:05;;;;;;;22.52;5.90;;;;;;;5.22;100.00;101749.16;10417734;28;20048;-74
2022/02/25 06:44:05;;;;;;;22.05;5.82;;;;;;;5.30;100.00;101774.31;10415844;28;20061;-75
2022/02/25 06:49:06;;;;;;;11.20;4.32;;;;;;;5.34;100.00;101766.81;10414644;28;20470;-75
2022/02/25 06:54:06;;;;;;;15.63;4.35;;;;;;;5.43;100.00;101776.72;10416538;28;20041;-75
2022/02/25 06:59:07;;;;;;;19.02;5.35;;;;;;;5.38;100.00;101783.50;10416075;28;20037;-74
2022/02/25 07:04:07;;;;;;;34.58;4.88;;;;;;;5.47;100.00;101796.06;10416672;28;20045;-75
2022/02/25 07:09:07;;;;;;;29.98;5.78;;;;;;;5.53;100.00;101803.56;10416464;28;20215;-75
2022/02/25 07:14:09;;;;;;;14.77;6.57;;;;;;;5.56;100.00;101812.19;10416791;28;20053;-75
2022/02/25 07:19:09;;;;;;;16.85;3.78;;;;;;;5.50;100.00;101828.03;10416702;28;20040;-75
2022/02/25 07:24:10;;;;;;;12.80;5.32;;;;;;;5.61;100.00;101835.94;10415417;28;20461;-75
2022/02/25 07:29:11;;;;;;;17.73;4.72;;;;;;;5.74;100.00;101849.06;10416355;28;20045;-75
2022/02/25 07:34:11;;;;;;;16.42;4.20;;;;;;;5.77;99.34;101846.94;10414292;28;20090;-75
2022/02/25 07:39:12;;;;;;;19.52;5.15;;;;;;;5.94;99.71;101866.09;10415603;28;20143;-75
2022/02/25 07:44:12;;;;;;;22.00;6.70;;;;;;;6.09;98.22;101864.63;10416162;28;20033;-75
2022/02/25 07:49:13;;;;;;;16.88;4.18;;;;;;;6.29;99.59;101860.06;10414598;28;20567;-76
2022/02/25 07:54:13;;;;;;;12.50;3.72;;;;;;;6.09;97.71;101874.53;10397725;28;20473;-76
2022/02/25 07:59:14;;;;;;;14.18;4.25;;;;;;;5.87;98.92;101884.59;10415061;28;20029;-75
2022/02/25 08:04:14;;;;;;;14.40;5.45;;;;;;;6.07;100.00;101909.66;10396619;28;20038;-76
2022/02/25 08:09:14;;;;;;;12.75;4.35;;;;;;;6.13;100.00;101914.47;10417752;28;20045;-76
2022/02/25 08:14:15;;;;;;;16.25;4.40;;;;;;;6.21;100.00;101924.50;10424399;28;20041;-75
2022/02/25 08:19:15;;;;;;;7.97;3.67;;;;;;;6.27;100.00;101935.50;10423122;28;20392;-76
2022/02/25 08:24:16;;;;;;;16.00;3.28;;;;;;;6.35;100.00;101945.56;10424621;28;20088;-76
2022/02/25 08:29:16;;;;;;;10.77;4.43;;;;;;;6.41;100.00;101952.19;10422303;28;20030;-78
2022/02/25 08:34:16;;;;;;;16.10;5.07;;;;;;;6.41;100.00;101957.56;10422653;28;20108;-77
2022/02/25 08:39:17;;;;;;;20.40;4.63;;;;;;;6.38;99.02;101974.88;10421872;28;20045;-77
2022/02/25 08:44:17;;;;;;;13.40;5.13;;;;;;;6.43;99.88;101982.50;10422235;28;20040;-78
2022/02/25 08:49:17;;;;;;;11.82;4.30;;;;;;;6.40;99.83;101999.78;10339067;28;20375;-79
2022/02/25 08:54:18;;;;;;;16.08;4.70;;;;;;;6.39;99.14;102005.31;10380662;28;20049;-76
2022/02/25 08:59:18;;;;;;;19.27;5.88;;;;;;;6.46;98.00;102003.75;10382065;28;20042;-77
2022/02/25 09:04:19;;;;;;;13.48;7.25;;;;;;;6.56;98.71;102022.56;10378860;28;20030;-74
2022/02/25 09:09:19;;;;;;;26.30;4.78;;;;;;;6.47;97.01;102011.66;10380074;28;20038;-74
2022/02/25 09:14:20;;;;;;;26.83;5.03;;;;;;;6.61;98.69;102031.06;10380003;28;20373;-75
2022/02/25 09:19:20;;;;;;;19.00;5.47;;;;;;;6.75;100.00;102036.84;10379534;28;20137;-74
2022/02/25 09:24:21;;;;;;;22.17;5.97;;;;;;;6.65;99.06;102043.25;10380035;28;20145;-76
2022/02/25 09:29:22;;;;;;;9.73;4.97;;;;;;;6.89;100.00;102048.13;10379223;28;20066;-78
2022/02/25 09:34:22;;;;;;;17.88;5.25;;;;;;;6.91;98.05;102055.09;10378073;28;20069;-73
2022/02/25 09:39:22;;;;;;;14.35;5.00;;;;;;;6.93;95.24;102057.66;10379072;28;20116;-76
2022/02/25 09:44:23;;;;;;;17.20;5.60;;;;;;;6.97;96.25;102067.13;10378972;28;20139;-74
2022/02/25 09:49:24;;;;;;;13.30;5.88;;;;;;;7.20;96.44;102081.94;10378821;28;20386;-73
2022/02/25 09:54:24;;;;;;;14.45;4.00;;;;;;;7.59;97.71;102089.03;10395260;28;20050;-73
2022/02/25 09:59:25;;;;;;;28.00;7.72;;;;;;;7.96;96.12;102094.38;10378388;28;20030;-74
2022/02/25 10:04:26;;;;;;;24.70;4.40;;;;;;;7.98;95.36;102111.28;10377672;28;20041;-75
2022/02/25 10:09:34;;;;;;;8.35;3.92;;;;;;;8.08;92.22;102116.63;10378402;28;20033;-79
2022/02/25 10:14:43;;;;;;;10.20;3.97;;;;;;;7.99;93.12;102125.59;10396016;28;20103;-76
2022/02/25 10:19:47;;;;;;;14.27;5.15;;;;;;;7.81;94.87;102134.47;10377246;28;20087;-77
2022/02/25 10:25:04;;;;;;;9.57;4.15;;;;;;;7.82;95.19;102136.19;10393558;28;20038;-76
2022/02/25 10:30:32;;;;;;;6.75;3.42;;;;;;;9.44;96.76;102146.00;10376121;28;20037;-77
2022/02/25 10:35:36;;;;;;;;;;;;;;;9.81;92.12;102161.09;10375838;28;20133;-76
2022/02/25 10:40:40;;;;;;;11.20;4.93;;;;;;;9.36;92.56;102175.72;10376014;28;19914;-75
2022/02/25 10:45:41;;;;;;;18.33;5.05;;;;;;;9.59;96.14;102191.41;10377383;28;20085;-76
2022/02/25 10:50:45;;;;;;;17.60;4.07;;;;;;;9.53;89.74;102187.47;10375104;28;20117;-74
2022/02/25 10:55:49;;;;;;;8.73;3.70;;;;;;;10.44;93.32;102200.47;10374967;28;20034;-75
2022/02/25 11:00:59;;;;;;;17.52;4.25;;;;;;;10.39;94.24;102208.22;10375290;28;20388;-74
2022/02/25 11:06:00;;;;;;;12.70;4.30;;;;;;;9.61;92.62;102224.56;10374666;28;20381;-74
2022/02/25 11:11:00;;;;;;;13.40;4.05;;;;;;;9.06;91.60;102231.03;10376055;28;20044;-75
2022/02/25 11:16:00;;;;;;;15.50;4.28;;;;;;;10.26;91.80;102241.16;10374155;28;20061;-77
2022/02/25 11:21:01;;;;;;;16.55;4.63;;;;;;;12.00;96.83;102253.72;10390860;28;20133;-76
2022/02/25 11:26:01;;;;;;;11.82;3.92;;;;;;;12.51;94.11;102256.09;10375266;28;20036;-76
2022/02/25 11:31:12;;;;;;;14.45;4.10;;;;;;;11.75;97.04;102274.63;10390653;28;20048;-73
2022/02/25 11:36:12;;;;;;;6.32;3.38;;;;;;;10.96;92.35;102280.69;10373512;28;20164;-73
2022/02/25 11:41:27;;;;;;;14.70;4.10;;;;;;;10.76;99.24;102280.97;10373233;28;20124;-74
2022/02/25 11:46:27;;;;;;;17.10;3.80;;;;;;;10.75;92.56;102295.50;10373357;28;20382;-73
2022/02/25 11:51:35;;;;;;;11.48;3.55;;;;;;;10.82;89.06;102303.88;10373539;28;20038;-72
2022/02/25 11:56:35;;;;;;;5.53;3.53;;;;;;;9.96;91.92;102307.47;10374501;28;20037;-74
2022/02/25 12:02:02;;;;;;;26.35;5.95;;;;;;;11.62;94.82;102304.13;10390533;28;20462;-75
2022/02/25 12:07:07;;;;;;;19.27;4.82;;;;;;;11.85;91.38;102307.88;10372341;28;20105;-74
2022/02/25 12:12:19;;;;;;;15.80;4.50;;;;;;;12.14;97.51;102300.19;10374093;28;20124;-74
2022/02/25 12:17:55;;;;;;;20.13;3.72;;;;;;;12.10;98.21;102313.28;10374713;28;20527;-74
2022/02/25 12:23:01;;;;;;;8.90;3.83;;;;;;;9.93;94.70;102335.69;10368314;28;20046;-75
2022/02/25 12:28:05;;;;;;;10.55;4.30;;;;;;;8.70;97.15;102346.28;10373752;28;20449;-75
2022/02/25 12:33:30;;;;;;;14.45;5.18;;;;;;;8.77;99.23;102356.34;10373661;28;20053;-74
2022/02/25 12:38:51;;;;;;;14.90;4.55;;;;;;;10.91;100.00;102355.22;10373629;28;20103;-75
2022/02/25 12:43:53;;;;;;;11.75;4.40;;;;;;;12.13;99.29;102359.09;10372634;28;20058;-75
2022/02/25 12:48:54;;;;;;;10.25;3.83;;;;;;;11.60;100.00;102380.25;10371593;28;20050;-78
2022/02/25 12:54:02;;;;;;;11.35;3.60;;;;;;;11.54;90.02;102385.50;10374693;28;20045;-74
2022/02/25 12:59:10;;;;;;;10.13;3.25;;;;;;;11.12;90.66;102400.00;10379426;28;20061;-74
2022/02/25 13:04:15;;;;;;;14.90;3.13;;;;;;;11.02;93.31;102394.72;10380326;28;20026;-77
2022/02/25 13:09:23;;;;;;;5.30;3.40;;;;;;;10.79;95.76;102415.28;10380868;28;20034;-74
2022/02/25 13:14:27;;;;;;;12.93;3.08;;;;;;;10.82;88.13;102420.38;10380293;28;20136;-75
2022/02/25 13:19:29;;;;;;;5.30;3.40;;;;;;;11.71;89.06;102424.38;10379496;28;20037;-75
2022/02/25 13:24:31;;;;;;;12.82;3.60;;;;;;;11.02;89.15;102423.69;10379605;28;20084;-75
2022/02/25 13:29:31;;;;;;;20.42;4.63;;;;;;;11.36;92.00;102440.75;10378158;28;20126;-74
2022/02/25 13:34:32;;;;;;;10.15;3.47;;;;;;;11.26;91.21;102450.03;10393738;28;20108;-75
2022/02/25 13:39:33;;;;;;;8.45;3.63;;;;;;;10.24;88.89;102454.31;10394816;28;20045;-75
2022/02/25 13:44:34;;;;;;;7.47;3.72;;;;;;;9.79;90.59;102455.28;10377550;28;20091;-77
2022/02/25 13:54:56;;;;;;;20.40;4.35;;;;;;;10.84;96.52;102476.09;10378272;28;20041;-74
2022/02/25 13:59:57;;;;;;;16.35;5.05;;;;;;;10.44;94.33;102491.09;10377634;28;20036;-76
2022/02/25 14:05:11;;;;;;;18.88;5.25;;;;;;;9.79;91.90;102490.44;10393581;28;20381;-76
2022/02/25 14:10:25;;;;;;;16.80;5.43;;;;;;;10.01;97.46;102495.41;10376677;28;20386;-76
2022/02/25 14:15:26;;;;;;;14.90;4.57;;;;;;;10.15;92.59;102509.44;10378112;28;20060;-73
2022/02/25 14:20:28;;;;;;;6.78;3.50;;;;;;;9.96;91.34;102530.22;10378122;28;20084;-76
2022/02/25 14:25:52;;;;;;;14.68;3.80;;;;;;;8.99;93.99;102519.06;10392193;28;20394;-74
2022/02/25 14:30:54;;;;;;;11.35;3.78;;;;;;;9.54;100.00;102517.25;10374895;28;20105;-76
2022/02/25 14:36:15;;;;;;;8.98;4.55;;;;;;;10.25;100.00;102537.28;10376836;28;20025;-75
2022/02/25 14:41:16;;;;;;;32.80;6.05;;;;;;;10.00;95.89;102542.44;10376098;28;20042;-75
2022/02/25 14:46:17;;;;;;;9.63;3.60;;;;;;;9.34;96.70;102548.09;10392336;28;20445;-74
2022/02/25 14:51:17;;;;;;;15.52;4.90;;;;;;;8.78;99.06;102562.50;10376090;28;20069;-76
2022/02/25 14:56:17;;;;;;;15.75;5.30;;;;;;;8.18;97.60;102581.53;10377639;28;20042;-75
2022/02/25 15:01:18;;;;;;;16.73;5.05;;;;;;;7.83;99.98;102592.81;10376868;28;20107;-74
2022/02/25 15:06:18;;;;;;;16.75;4.95;;;;;;;7.66;100.00;102603.28;10376717;28;20373;-74
2022/02/25 15:11:19;;;;;;;11.82;5.18;;;;;;;8.09;100.00;102607.50;10322579;28;20053;-74
2022/02/25 15:16:21;;;;;;;14.75;3.90;;;;;;;8.27;100.00;102615.75;10376119;28;20561;-74
2022/02/25 15:21:21;;;;;;;13.52;5.20;;;;;;;7.97;100.00;102616.69;10376298;28;20430;-74
2022/02/25 15:26:21;;;;;;;23.65;5.93;;;;;;;7.78;100.00;102628.28;10375478;28;20030;-74
2022/02/25 15:31:22;;;;;;;13.20;4.65;;;;;;;7.60;100.00;102627.22;10374620;28;20478;-74
2022/02/25 15:36:22;;;;;;;26.40;4.22;;;;;;;7.72;100.00;102639.59;10372695;28;20112;-75
2022/02/25 15:41:23;;;;;;;18.38;3.92;;;;;;;7.58;100.00;102643.53;10356432;28;20037;-72
2022/02/25 15:46:23;;;;;;;21.95;6.68;;;;;;;7.42;100.00;102646.72;10341751;28;24166;-75
2022/02/25 15:51:23;;;;;;;23.48;3.92;;;;;;;7.43;100.00;102656.53;10445644;28;20440;-75
2022/02/25 15:56:24;;;;;;;21.30;4.13;;;;;;;7.46;100.00;102671.56;10438322;28;20120;-75
2022/02/25 16:01:24;;;;;;;19.58;5.30;;;;;;;7.72;100.00;102665.72;10456225;28;20384;-75
2022/02/25 16:06:25;;;;;;;20.23;5.72;;;;;;;7.69;100.00;102667.72;10455481;28;20068;-75
2022/02/25 16:11:25;;;;;;;10.95;4.07;;;;;;;7.60;100.00;102679.31;10438300;28;20183;-75
2022/02/25 16:16:26;;;;;;;20.52;4.97;;;;;;;7.42;100.00;102684.44;10455755;28;20033;-75
2022/02/25 16:21:26;;;;;;;12.68;4.50;;;;;;;7.13;99.93;102695.03;10439254;28;20064;-75
2022/02/25 16:26:27;;;;;;;9.95;4.85;;;;;;;7.11;100.00;102710.47;10438467;28;20033;-75
2022/02/25 16:31:27;;;;;;;34.15;6.22;;;;;;;6.99;100.00;102717.78;10458555;28;20373;-75
2022/02/25 16:36:28;;;;;;;11.75;5.68;;;;;;;6.71;100.00;102732.69;10464169;28;20113;-75
2022/02/25 16:41:28;;;;;;;12.80;3.53;;;;;;;6.49;100.00;102747.06;10445284;28;20041;-75
2022/02/25 16:46:28;;;;;;;16.65;5.03;;;;;;;6.34;100.00;102755.53;10463274;28;20124;-75
2022/02/25 16:51:29;;;;;;;17.80;5.72;;;;;;;6.17;100.00;102773.88;10463081;28;20045;-75
2022/02/25 16:56:29;;;;;;;28.73;6.72;;;;;;;6.10;100.00;102788.81;10444838;28;20033;-75
2022/02/25 17:01:30;;;;;;;16.33;6.50;;;;;;;6.14;100.00;102798.34;10461302;28;20065;-75
2022/02/25 17:06:30;;;;;;;20.33;5.07;;;;;;;6.30;100.00;102795.28;10462387;28;20061;-75
2022/02/25 17:11:31;;;;;;;18.08;5.30;;;;;;;6.13;100.00;102806.53;10462092;28;20025;-74
2022/02/25 17:16:31;;;;;;;14.13;4.43;;;;;;;5.94;100.00;102815.19;10461387;28;20064;-75
2022/02/25 17:21:32;;;;;;;26.35;5.88;;;;;;;5.83;100.00;102826.75;10461507;28;20048;-75
2022/02/25 17:26:33;;;;;;;33.35;5.88;;;;;;;5.80;100.00;102830.50;10462942;28;20503;-75
2022/02/25 17:31:33;;;;;;;10.70;3.58;;;;;;;5.71;100.00;102842.00;10463364;28;20097;-75
2022/02/25 17:36:34;;;;;;;21.25;5.75;;;;;;;5.58;100.00;102850.16;10464046;28;20456;-74
2022/02/25 17:41:34;;;;;;;35.30;5.63;;;;;;;5.48;100.00;102853.63;10459899;28;20122;-75
2022/02/25 17:46:34;;;;;;;32.53;7.38;;;;;;;5.42;100.00;102867.53;10460200;28;20116;-75
2022/02/25 17:51:35;;;;;;;14.15;5.10;;;;;;;5.38;100.00;102866.91;10460430;28;20037;-75
2022/02/25 17:56:35;;;;;;;18.48;4.20;;;;;;;5.24;100.00;102884.06;10460386;28;20044;-75
2022/02/25 18:01:36;;;;;;;34.15;7.05;;;;;;;5.15;100.00;102895.50;10427179;28;20064;-75
2022/02/25 18:06:36;;;;;;;21.42;5.78;;;;;;;5.20;100.00;102911.25;10460174;28;20037;-75
2022/02/25 18:11:38;;;;;;;28.67;5.95;;;;;;;5.15;100.00;102908.06;10458770;28;20111;-75
2022/02/25 18:16:38;;;;;;;30.60;5.28;;;;;;;5.10;100.00;102927.19;10459601;28;20033;-75
2022/02/25 18:21:39;;;;;;;14.70;5.07;;;;;;;5.10;100.00;102936.09;10460082;28;20033;-75
2022/02/25 18:26:40;;;;;;;32.90;5.50;;;;;;;5.05;100.00;102943.66;10461402;28;20067;-75
2022/02/25 18:31:41;;;;;;;15.07;5.20;;;;;;;4.98;100.00;102950.44;10459353;28;20349;-74
2022/02/25 18:36:41;;;;;;;14.63;4.55;;;;;;;4.97;100.00;102947.84;10459634;28;20040;-75
2022/02/25 18:41:42;;;;;;;20.25;4.78;;;;;;;4.89;100.00;102956.47;10441237;28;20120;-75
2022/02/25 18:46:42;;;;;;;20.10;6.47;;;;;;;4.83;100.00;102964.94;10441372;28;20392;-75
2022/02/25 18:51:42;;;;;;;19.85;5.75;;;;;;;4.84;100.00;102972.03;10459082;28;20036;-74
2022/02/25 18:56:43;;;;;;;19.52;7.25;;;;;;;4.78;100.00;102976.00;10456846;28;20036;-75
2022/02/25 19:01:46;;;;;;;10.88;4.57;;;;;;;4.73;100.00;102978.16;10456753;28;20057;-75
2022/02/25 19:06:46;;;;;;;10.00;5.25;;;;;;;4.64;100.00;102978.81;10457613;28;20033;-75
2022/02/25 19:11:48;;;;;;;13.15;5.45;;;;;;;4.52;100.00;102995.75;10456858;28;20365;-75
2022/02/25 19:16:49;;;;;;;31.20;6.10;;;;;;;4.41;100.00;103007.25;10457604;28;20045;-75
2022/02/25 19:21:51;;;;;;;21.50;6.93;;;;;;;4.38;100.00;103008.31;10457439;28;20392;-75
2022/02/25 19:26:52;;;;;;;17.98;4.30;;;;;;;4.34;100.00;103017.53;10457109;28;20036;-74
2022/02/25 19:31:52;;;;;;;10.43;4.43;;;;;;;4.34;100.00;103035.44;10456734;28;20103;-74
2022/02/25 19:36:54;;;;;;;23.88;6.47;;;;;;;4.32;100.00;103042.75;10456030;28;20064;-75
2022/02/25 19:41:54;;;;;;;15.10;4.60;;;;;;;4.17;100.00;103045.47;10457693;28;20036;-75
2022/02/25 19:46:54;;;;;;;22.17;5.88;;;;;;;4.21;100.00;103056.84;10422635;28;20393;-74
2022/02/25 19:51:56;;;;;;;29.90;6.57;;;;;;;4.25;100.00;103060.22;10414939;28;20051;-75
2022/02/25 19:56:56;;;;;;;9.98;4.85;;;;;;;4.30;100.00;103056.22;10415676;28;20033;-76
2022/02/25 20:01:56;;;;;;;32.65;6.75;;;;;;;4.34;100.00;103057.78;10416673;28;20041;-75
2022/02/25 20:06:57;;;;;;;16.10;5.97;;;;;;;4.41;100.00;103068.94;10423345;28;20080;-75
2022/02/25 20:11:57;;;;;;;17.38;4.25;;;;;;;4.46;100.00;103066.78;10426707;28;20096;-75
2022/02/25 20:16:58;;;;;;;13.25;4.32;;;;;;;4.49;100.00;103071.09;10423945;28;20528;-75
2022/02/25 20:21:58;;;;;;;9.90;4.65;;;;;;;4.35;100.00;103080.94;10423635;28;20493;-75
2022/02/25 20:26:59;;;;;;;26.45;5.57;;;;;;;4.22;100.00;103084.56;10405002;28;20037;-76
2022/02/25 20:31:59;;;;;;;23.25;5.97;;;;;;;4.11;100.00;103091.47;10420906;28;20429;-75
2022/02/25 20:37:00;;;;;;;18.05;7.22;;;;;;;4.00;100.00;103095.84;10422893;28;20100;-75
2022/02/25 20:42:00;;;;;;;26.60;7.93;;;;;;;3.96;100.00;103114.81;10424378;28;20376;-76
2022/02/25 20:47:02;;;;;;;17.55;5.18;;;;;;;3.90;100.00;103119.69;10406019;28;20053;-75
2022/02/25 20:52:03;;;;;;;24.08;7.80;;;;;;;3.76;100.00;103120.56;10421646;28;20074;-76
2022/02/25 20:57:04;;;;;;;14.13;5.18;;;;;;;3.63;100.00;103128.53;10405083;28;20039;-75
2022/02/25 21:02:04;;;;;;;27.40;8.32;;;;;;;3.58;100.00;103138.69;10404698;28;20037;-75
2022/02/25 21:07:04;;;;;;;14.18;6.00;;;;;;;3.49;100.00;103140.13;10421958;28;20101;-76
2022/02/25 21:12:05;;;;;;;39.58;6.75;;;;;;;3.45;100.00;103152.00;10423021;28;20033;-75
2022/02/25 21:17:06;;;;;;;21.98;7.28;;;;;;;3.60;100.00;103168.91;10420535;28;20037;-75
2022/02/25 21:22:06;;;;;;;33.83;10.90;;;;;;;3.97;100.00;103169.28;10421751;28;20068;-75
2022/02/25 21:27:07;;;;;;;25.85;8.30;;;;;;;4.17;100.00;103176.00;10419745;28;20044;-75
2022/02/25 21:32:07;;;;;;;20.60;7.15;;;;;;;4.18;100.00;103199.22;10386670;28;20132;-74
2022/02/25 21:37:07;;;;;;;29.30;6.10;;;;;;;4.29;100.00;103193.16;10420503;28;20148;-75
2022/02/25 21:42:08;;;;;;;19.52;6.70;;;;;;;4.39;100.00;103197.78;10402839;28;20033;-75
2022/02/25 21:47:08;;;;;;;24.17;7.80;;;;;;;4.50;100.00;103204.25;10438103;28;20452;-77
2022/02/25 21:52:09;;;;;;;15.60;5.03;;;;;;;4.51;100.00;103203.31;10461822;28;20398;-75
2022/02/25 21:57:10;;;;;;;26.88;6.82;;;;;;;4.43;100.00;103201.13;10443108;28;20048;-75
2022/02/25 22:02:10;;;;;;;15.43;6.30;;;;;;;4.28;100.00;103207.53;10427280;28;20086;-75
2022/02/25 22:07:11;;;;;;;24.40;7.00;;;;;;;4.14;100.00;103203.88;10462145;28;20061;-74
2022/02/25 22:12:11;;;;;;;27.33;6.70;;;;;;;3.99;100.00;103206.69;10461469;28;20037;-74
2022/02/25 22:17:12;;;;;;;22.05;6.95;;;;;;;3.90;100.00;103211.69;10461643;28;20542;-74
2022/02/25 22:22:12;;;;;;;22.08;5.30;;;;;;;3.78;100.00;103223.19;10460599;28;20040;-75
2022/02/25 22:27:12;;;;;;;39.47;7.38;;;;;;;3.57;100.00;103211.09;10458496;28;20037;-75
2022/02/25 22:32:13;;;;;;;14.57;6.50;;;;;;;3.38;100.00;103208.69;10460586;28;20041;-75
2022/02/25 22:37:13;;;;;;;23.73;5.70;;;;;;;3.18;100.00;103204.56;10458776;28;20040;-74
2022/02/25 22:42:17;;;;;;;19.17;6.25;;;;;;;2.99;100.00;103213.69;10459006;28;20143;-76
2022/02/25 22:47:17;;;;;;;15.25;5.32;;;;;;;2.99;100.00;103236.91;10460283;28;20076;-75
2022/02/25 23:02:55;;;;;;;35.72;8.50;;;;;;;2.84;100.00;103241.38;10457785;28;20041;-74
2022/02/25 23:07:56;;;;;;;23.73;6.15;;;;;;;2.71;100.00;103243.91;10440896;28;20452;-74
2022/02/25 23:12:56;;;;;;;12.25;5.30;;;;;;;2.62;100.00;103244.44;10458964;28;20036;-74
2022/02/25 23:17:57;;;;;;;26.45;7.28;;;;;;;2.57;100.00;103241.16;10457088;28;20488;-73
2022/02/25 23:22:57;;;;;;;18.80;7.00;;;;;;;2.49;100.00;103243.38;10457495;28;20029;-74